createdAt,value
2019-04-20T00:01:35.655Z,7.01
2019-04-20T00:03:45.641Z,6.92
2019-04-20T00:05:53.656Z,6.88
2019-04-20T00:08:08.919Z,6.87
2019-04-20T00:10:16.988Z,6.85
2019-04-20T00:12:34.237Z,6.79
2019-04-20T00:14:33.862Z,6.80
2019-04-20T00:16:39.976Z,6.79
2019-04-20T00:18:53.187Z,6.76
2019-04-20T00:21:05.543Z,6.74
2019-04-20T00:23:19.739Z,6.71
2019-04-20T00:25:52.201Z,6.72
2019-04-20T00:28:19.796Z,6.71
2019-04-20T00:30:31.435Z,6.69
2019-04-20T00:32:40.041Z,6.65
2019-04-20T00:34:37.214Z,6.58
2019-04-20T00:36:43.308Z,6.59
2019-04-20T00:38:56.134Z,6.55
2019-04-20T00:41:05.639Z,6.54
2019-04-20T00:43:13.221Z,6.50
2019-04-20T00:45:25.566Z,6.50
2019-04-20T00:47:42.999Z,6.49
2019-04-20T00:49:52.284Z,6.49
2019-04-20T00:52:18.835Z,6.48
2019-04-20T00:54:01.873Z,6.47
2019-04-20T00:56:10.187Z,6.40
2019-04-20T00:58:27.040Z,6.38
2019-04-20T01:00:48.488Z,6.29
2019-04-20T01:02:50.738Z,6.28
2019-04-20T01:05:04.021Z,6.26
2019-04-20T01:07:14.002Z,6.25
2019-04-20T01:09:14.069Z,6.26
2019-04-20T01:11:27.299Z,6.22
2019-04-20T01:13:31.842Z,6.11
2019-04-20T01:15:48.817Z,6.02
2019-04-20T01:18:07.426Z,5.97
2019-04-20T01:20:16.840Z,5.90
2019-04-20T01:22:28.584Z,5.85
2019-04-20T01:24:40.471Z,5.83
2019-04-20T01:26:50.637Z,5.78
2019-04-20T01:29:08.925Z,5.77
2019-04-20T01:31:15.700Z,5.76
2019-04-20T01:33:30.082Z,5.78
2019-04-20T01:35:39.597Z,5.78
2019-04-20T01:37:46.959Z,5.78
2019-04-20T01:39:48.729Z,5.78
2019-04-20T01:41:52.025Z,5.77
2019-04-20T01:44:00.516Z,5.74
2019-04-20T01:46:15.635Z,5.74
2019-04-20T01:48:22.908Z,5.71
2019-04-20T01:50:33.002Z,5.70
2019-04-20T01:52:50.801Z,5.68
2019-04-20T01:55:13.772Z,5.63
2019-04-20T01:57:12.814Z,5.63
2019-04-20T01:59:22.992Z,5.61
2019-04-20T02:01:42.480Z,5.60
2019-04-20T02:03:55.439Z,5.57
2019-04-20T02:06:11.670Z,5.51
2019-04-20T02:08:20.720Z,5.47
2019-04-20T02:10:37.013Z,5.42
2019-04-20T02:12:39.562Z,5.37
2019-04-20T02:14:52.460Z,5.32
2019-04-20T02:17:06.591Z,5.30
2019-04-20T02:19:22.920Z,5.31
2019-04-20T02:21:34.263Z,5.32
2019-04-20T02:23:35.697Z,5.29
2019-04-20T02:25:35.681Z,5.28
2019-04-20T02:27:50.279Z,5.27
2019-04-20T02:30:21.667Z,5.24
2019-04-20T02:33:27.301Z,5.22
2019-04-20T02:34:48.659Z,5.20
2019-04-20T02:37:28.802Z,5.18
2019-04-20T02:39:37.546Z,5.11
2019-04-20T02:41:44.665Z,5.05
2019-04-20T02:43:59.774Z,5.01
2019-04-20T02:45:55.084Z,4.97
2019-04-20T02:48:10.039Z,4.91
2019-04-20T02:52:33.133Z,4.85
2019-04-20T02:56:47.692Z,4.88
2019-04-20T02:59:02.077Z,4.88
2019-04-20T03:00:57.139Z,4.84
2019-04-20T03:02:53.432Z,4.86
2019-04-20T03:05:02.570Z,4.85
2019-04-20T03:07:15.633Z,4.85
2019-04-20T03:09:32.544Z,4.81
2019-04-20T03:11:51.392Z,4.78
2019-04-20T03:13:48.777Z,4.69
2019-04-20T03:16:01.882Z,4.65
2019-04-20T03:18:08.814Z,4.49
2019-04-20T03:20:23.198Z,4.59
2019-04-20T03:22:46.533Z,4.61
2019-04-20T03:24:43.687Z,4.66
2019-04-20T03:26:55.655Z,4.65
2019-04-20T03:29:01.825Z,4.64
2019-04-20T03:33:51.683Z,4.69
2019-04-20T03:35:36.846Z,4.68
2019-04-20T03:37:48.521Z,4.67
2019-04-20T03:39:47.684Z,4.66
2019-04-20T03:41:48.518Z,4.65
2019-04-20T03:44:00.899Z,4.56
2019-04-20T03:46:10.655Z,4.55
2019-04-20T03:48:34.581Z,4.48
2019-04-20T03:50:46.321Z,4.31
2019-04-20T03:53:03.916Z,4.14
2019-04-20T03:55:39.736Z,4.03
2019-04-20T03:57:43.760Z,4.01
2019-04-20T03:59:50.871Z,3.95
2019-04-20T04:02:23.852Z,3.97
2019-04-20T04:04:15.020Z,4.00
2019-04-20T04:06:17.740Z,4.04
2019-04-20T04:08:28.384Z,4.08
2019-04-20T04:10:44.427Z,4.12
2019-04-20T04:13:12.172Z,4.14
2019-04-20T04:15:20.933Z,4.20
2019-04-20T04:17:33.817Z,4.27
2019-04-20T04:19:44.809Z,4.36
2019-04-20T04:22:04.100Z,4.44
2019-04-20T04:24:10.654Z,4.53
2019-04-20T04:26:26.146Z,4.61
2019-04-20T04:28:37.388Z,4.73
2019-04-20T04:30:40.576Z,4.84
2019-04-20T04:33:22.380Z,4.94
2019-04-20T04:35:01.656Z,5.04
2019-04-20T04:37:16.494Z,5.14
2019-04-20T04:39:31.020Z,5.25
2019-04-20T04:41:36.445Z,5.35
2019-04-20T04:43:48.066Z,5.43
2019-04-20T04:45:36.955Z,5.51
2019-04-20T04:47:45.364Z,5.59
2019-04-20T04:50:00.704Z,5.68
2019-04-20T04:52:07.973Z,5.75
2019-04-20T04:54:21.593Z,5.83
2019-04-20T04:56:23.841Z,5.87
2019-04-20T04:58:31.900Z,5.97
2019-04-20T05:00:40.829Z,6.03
2019-04-20T05:02:53.891Z,6.10
2019-04-20T05:05:31.365Z,6.16
2019-04-20T05:07:38.760Z,6.23
2019-04-20T05:09:37.913Z,6.33
2019-04-20T05:12:05.496Z,6.41
2019-04-20T05:14:13.558Z,6.50
2019-04-20T05:16:40.093Z,6.62
2019-04-20T05:18:55.467Z,6.72
2019-04-20T05:20:58.785Z,6.81
2019-04-20T05:23:07.716Z,6.94
2019-04-20T05:25:33.132Z,7.06
2019-04-20T05:27:47.919Z,7.12
2019-04-20T05:29:38.151Z,7.23
2019-04-20T05:31:51.787Z,7.36
2019-04-20T05:34:20.296Z,7.46
2019-04-20T05:36:23.128Z,7.60
2019-04-20T05:38:41.907Z,7.78
2019-04-20T05:40:47.695Z,7.94
2019-04-20T05:42:54.383Z,8.08
2019-04-20T05:45:05.564Z,8.20
2019-04-20T05:47:15.828Z,8.33
2019-04-20T05:49:28.397Z,8.48
2019-04-20T05:51:37.992Z,8.59
2019-04-20T05:53:48.821Z,8.75
2019-04-20T05:55:48.855Z,8.85
2019-04-20T05:58:08.915Z,8.99
2019-04-20T06:00:17.342Z,9.14
2019-04-20T06:02:22.650Z,9.31
2019-04-20T06:04:46.359Z,9.50
2019-04-20T06:06:47.671Z,9.66
2019-04-20T06:08:59.534Z,9.84
2019-04-20T06:11:06.266Z,10.02
2019-04-20T06:13:13.088Z,10.19
2019-04-20T06:15:39.283Z,10.30
2019-04-20T06:18:02.399Z,10.47
2019-04-20T06:20:15.552Z,10.68
2019-04-20T06:22:30.828Z,10.85
2019-04-20T06:24:46.886Z,10.98
2019-04-20T06:26:53.853Z,11.19
2019-04-20T06:28:54.058Z,11.38
2019-04-20T06:31:12.300Z,11.55
2019-04-20T06:34:27.983Z,11.72
2019-04-20T06:36:29.216Z,11.93
2019-04-20T06:38:48.333Z,12.18
2019-04-20T06:42:48.257Z,12.55
2019-04-20T06:45:05.720Z,12.77
2019-04-20T06:47:24.983Z,12.97
2019-04-20T06:51:36.855Z,13.39
2019-04-20T06:53:47.035Z,13.62
2019-04-20T06:56:07.118Z,13.87
2019-04-20T06:58:12.634Z,14.09
2019-04-20T07:00:18.032Z,14.30
2019-04-20T07:02:38.650Z,14.52
2019-04-20T07:09:00.711Z,15.06
2019-04-20T07:11:10.600Z,15.26
2019-04-20T07:13:07.726Z,15.41
2019-04-20T07:15:22.631Z,15.34
2019-04-20T07:19:50.054Z,15.64
2019-04-20T07:22:25.313Z,15.67
2019-04-20T07:24:38.596Z,15.82
2019-04-20T07:26:44.323Z,15.86
2019-04-20T07:28:56.797Z,15.80
2019-04-20T07:30:57.019Z,15.82
2019-04-20T07:33:16.678Z,15.93
2019-04-20T07:35:19.645Z,15.86
2019-04-20T07:39:40.647Z,16.31
2019-04-20T07:41:54.594Z,16.46
2019-04-20T07:44:21.758Z,16.58
2019-04-20T07:46:09.335Z,16.76
2019-04-20T07:48:21.241Z,16.91
2019-04-20T07:50:25.116Z,17.00
2019-04-20T07:52:36.680Z,17.07
2019-04-20T07:55:15.245Z,16.80
2019-04-20T07:57:00.391Z,16.76
2019-04-20T07:58:55.228Z,16.73
2019-04-20T08:01:48.645Z,16.84
2019-04-20T08:03:51.436Z,17.07
2019-04-20T08:06:01.497Z,16.99
2019-04-20T08:08:18.097Z,16.89
2019-04-20T08:10:12.249Z,17.05
2019-04-20T08:12:51.626Z,17.11
2019-04-20T08:14:56.793Z,16.93
2019-04-20T08:17:14.226Z,17.00
2019-04-20T08:19:09.979Z,17.02
2019-04-20T08:21:23.298Z,17.03
2019-04-20T08:23:28.536Z,17.06
2019-04-20T08:25:34.919Z,17.44
2019-04-20T08:27:48.790Z,17.54
2019-04-20T08:30:33.991Z,17.50
2019-04-20T08:32:58.275Z,17.50
2019-04-20T08:35:14.361Z,17.78
2019-04-20T08:37:23.452Z,17.62
2019-04-20T08:39:48.156Z,17.73
2019-04-20T08:41:45.128Z,17.71
2019-04-20T08:44:06.440Z,17.94
2019-04-20T08:46:05.626Z,17.90
2019-04-20T08:48:18.637Z,17.85
2019-04-20T08:50:24.902Z,17.83
2019-04-20T08:52:55.507Z,17.76
2019-04-20T08:54:34.393Z,17.94
2019-04-20T08:56:38.984Z,18.05
2019-04-20T08:58:41.567Z,17.84
2019-04-20T09:00:57.861Z,17.90
2019-04-20T09:03:12.151Z,17.95
2019-04-20T09:05:29.462Z,17.72
2019-04-20T09:07:25.141Z,17.81
2019-04-20T09:09:56.442Z,17.78
2019-04-20T09:12:02.819Z,17.95
2019-04-20T09:13:55.703Z,18.01
2019-04-20T09:16:02.010Z,17.97
2019-04-20T09:18:21.372Z,18.13
2019-04-20T09:20:31.732Z,18.29
2019-04-20T09:22:49.429Z,18.59
2019-04-20T09:25:07.462Z,18.64
2019-04-20T09:27:14.287Z,18.27
2019-04-20T09:29:21.932Z,18.30
2019-04-20T09:31:43.651Z,18.25
2019-04-20T09:33:55.672Z,18.37
2019-04-20T09:36:06.647Z,18.64
2019-04-20T09:38:14.409Z,18.62
2019-04-20T09:40:30.632Z,18.74
2019-04-20T09:42:24.409Z,18.85
2019-04-20T09:44:37.537Z,18.59
2019-04-20T09:46:46.042Z,18.93
2019-04-20T09:48:57.935Z,18.85
2019-04-20T09:51:21.990Z,18.61
2019-04-20T09:53:24.549Z,18.68
2019-04-20T09:55:35.805Z,18.73
2019-04-20T09:57:49.957Z,18.41
2019-04-20T10:00:04.269Z,18.61
2019-04-20T10:02:02.138Z,18.82
2019-04-20T10:04:01.489Z,18.84
2019-04-20T10:06:09.700Z,18.94
2019-04-20T10:08:17.727Z,19.10
2019-04-20T10:10:32.291Z,18.98
2019-04-20T10:12:35.665Z,18.70
2019-04-20T10:14:44.816Z,18.84
2019-04-20T10:16:53.794Z,18.63
2019-04-20T10:19:02.801Z,18.97
2019-04-20T10:21:11.876Z,18.79
2019-04-20T10:23:20.712Z,19.06
2019-04-20T10:25:28.770Z,19.34
2019-04-20T10:27:36.800Z,19.52
2019-04-20T10:29:45.842Z,19.33
2019-04-20T10:31:58.518Z,19.52
2019-04-20T10:34:04.927Z,19.05
2019-04-20T10:36:15.554Z,19.35
2019-04-20T10:38:23.363Z,19.23
2019-04-20T10:40:45.023Z,18.96
2019-04-20T10:42:41.837Z,19.08
2019-04-20T10:44:52.234Z,19.34
2019-04-20T10:47:00.748Z,19.09
2019-04-20T10:49:09.667Z,19.33
2019-04-20T10:51:19.814Z,19.42
2019-04-20T10:53:27.974Z,19.51
2019-04-20T10:55:35.992Z,19.35
2019-04-20T10:57:43.911Z,19.17
2019-04-20T10:59:52.865Z,19.34
2019-04-20T11:02:01.560Z,19.62
2019-04-20T11:04:10.553Z,19.61
2019-04-20T11:06:18.661Z,19.92
2019-04-20T11:08:26.655Z,20.18
2019-04-20T11:10:49.389Z,20.24
2019-04-20T11:12:44.338Z,20.17
2019-04-20T11:14:54.450Z,19.86
2019-04-20T11:17:02.682Z,20.05
2019-04-20T11:19:11.621Z,20.08
2019-04-20T11:21:19.714Z,20.14
2019-04-20T11:23:28.646Z,19.82
2019-04-20T11:25:37.898Z,19.74
2019-04-20T11:27:46.053Z,20.16
2019-04-20T11:29:54.103Z,20.34
2019-04-20T11:32:03.141Z,20.00
2019-04-20T11:34:14.943Z,19.93
2019-04-20T11:36:21.259Z,19.91
2019-04-20T11:38:30.207Z,19.78
2019-04-20T11:40:39.342Z,19.45
2019-04-20T11:42:47.940Z,19.70
2019-04-20T11:44:57.137Z,19.90
2019-04-20T11:47:06.433Z,19.37
2019-04-20T11:49:15.433Z,19.23
2019-04-20T11:51:23.451Z,18.98
2019-04-20T11:53:32.247Z,19.22
2019-04-20T11:55:40.469Z,19.00
2019-04-20T11:57:49.425Z,19.22
2019-04-20T11:59:57.521Z,19.53
2019-04-20T12:02:25.036Z,19.45
2019-04-20T12:04:42.032Z,19.58
2019-04-20T12:06:43.895Z,19.47
2019-04-20T12:08:52.992Z,19.50
2019-04-20T12:11:12.044Z,19.49
2019-04-20T12:13:13.350Z,19.17
2019-04-20T12:15:19.877Z,19.23
2019-04-20T12:17:27.801Z,19.37
2019-04-20T12:19:36.317Z,19.59
2019-04-20T12:21:47.576Z,19.66
2019-04-20T12:23:56.210Z,19.46
2019-04-20T12:26:04.892Z,19.60
2019-04-20T12:28:13.691Z,19.80
2019-04-20T12:30:23.958Z,20.00
2019-04-20T12:32:36.408Z,19.75
2019-04-20T12:34:41.370Z,19.43
2019-04-20T12:36:49.213Z,19.61
2019-04-20T12:38:57.233Z,19.67
2019-04-20T12:41:07.478Z,19.45
2019-04-20T12:43:15.179Z,19.52
2019-04-20T12:45:25.860Z,19.53
2019-04-20T12:47:33.739Z,19.79
2019-04-20T12:49:41.459Z,19.59
2019-04-20T12:51:54.607Z,19.95
2019-04-20T12:54:00.550Z,20.29
2019-04-20T12:56:08.761Z,20.13
2019-04-20T12:58:16.774Z,20.01
2019-04-20T13:00:29.750Z,19.92
2019-04-20T13:02:37.708Z,20.10
2019-04-20T13:04:45.739Z,20.51
2019-04-20T13:06:55.369Z,20.36
2019-04-20T13:09:05.768Z,20.25
2019-04-20T13:11:16.857Z,19.85
2019-04-20T13:13:32.469Z,19.76
2019-04-20T13:15:42.806Z,19.64
2019-04-20T13:17:52.465Z,19.79
2019-04-20T13:20:00.176Z,19.57
2019-04-20T13:22:07.960Z,19.69
2019-04-20T13:24:16.717Z,19.53
2019-04-20T13:26:25.106Z,19.70
2019-04-20T13:28:32.964Z,19.70
2019-04-20T13:30:41.922Z,19.52
2019-04-20T13:32:50.395Z,19.53
2019-04-20T13:35:00.374Z,19.65
2019-04-20T13:37:08.501Z,19.60
2019-04-20T13:39:16.575Z,19.48
2019-04-20T13:41:25.650Z,19.57
2019-04-20T13:43:33.502Z,19.43
2019-04-20T13:45:42.649Z,19.33
2019-04-20T13:47:50.917Z,19.52
2019-04-20T13:49:58.917Z,19.41
2019-04-20T13:52:06.820Z,19.55
2019-04-20T13:54:18.037Z,19.63
2019-04-20T13:56:25.868Z,19.59
2019-04-20T13:58:51.881Z,19.76
2019-04-20T14:01:18.837Z,19.72
2019-04-20T14:03:29.986Z,19.83
2019-04-20T14:05:38.529Z,19.80
2019-04-20T14:07:47.272Z,19.99
2019-04-20T14:09:57.465Z,19.48
2019-04-20T14:12:19.390Z,19.51
2019-04-20T14:14:15.273Z,19.35
2019-04-20T14:16:23.412Z,19.43
2019-04-20T14:18:31.257Z,19.49
2019-04-20T14:20:40.292Z,19.66
2019-04-20T14:22:49.173Z,19.89
2019-04-20T14:24:57.962Z,19.78
2019-04-20T14:27:06.560Z,19.71
2019-04-20T14:29:14.839Z,20.08
2019-04-20T14:31:23.812Z,19.56
2019-04-20T14:33:33.079Z,19.73
2019-04-20T14:35:40.956Z,19.67
2019-04-20T14:37:50.149Z,19.45
2019-04-20T14:39:58.508Z,19.41
2019-04-20T14:42:06.652Z,19.36
2019-04-20T14:44:16.131Z,19.33
2019-04-20T14:46:26.338Z,19.26
2019-04-20T14:48:34.486Z,19.12
2019-04-20T14:50:43.422Z,19.34
2019-04-20T14:52:53.418Z,19.37
2019-04-20T14:55:01.789Z,19.47
2019-04-20T14:57:11.707Z,19.36
2019-04-20T14:59:25.333Z,19.14
2019-04-20T15:01:36.495Z,19.12
2019-04-20T15:03:45.463Z,18.98
2019-04-20T15:05:59.875Z,18.89
2019-04-20T15:08:08.924Z,18.74
2019-04-20T15:10:16.981Z,18.80
2019-04-20T15:12:37.858Z,18.71
2019-04-20T15:14:36.618Z,18.76
2019-04-20T15:16:44.618Z,18.61
2019-04-20T15:18:56.463Z,18.59
2019-04-20T15:21:13.562Z,18.74
2019-04-20T15:23:23.633Z,18.67
2019-04-20T15:25:31.728Z,18.61
2019-04-20T15:27:44.011Z,18.57
2019-04-20T15:29:49.030Z,18.57
2019-04-20T15:31:57.154Z,18.55
2019-04-20T15:34:05.136Z,18.45
2019-04-20T15:36:13.803Z,18.65
2019-04-20T15:38:24.971Z,18.72
2019-04-20T15:40:33.133Z,18.61
2019-04-20T15:42:56.607Z,18.60
2019-04-20T15:44:57.797Z,18.50
2019-04-20T15:47:09.037Z,18.80
2019-04-20T15:49:17.955Z,18.72
2019-04-20T15:51:25.895Z,18.53
2019-04-20T15:53:35.507Z,18.45
2019-04-20T15:55:45.246Z,18.43
2019-04-20T15:57:53.518Z,18.27
2019-04-20T16:00:02.652Z,18.36
2019-04-20T16:02:21.040Z,18.26
2019-04-20T16:04:48.575Z,18.23
2019-04-20T16:06:56.987Z,18.27
2019-04-20T16:09:08.350Z,18.25
2019-04-20T16:11:19.241Z,18.19
2019-04-20T16:13:35.078Z,17.96
2019-04-20T16:15:37.894Z,17.90
2019-04-20T16:17:49.138Z,17.85
2019-04-20T16:20:02.907Z,17.89
2019-04-20T16:22:05.947Z,17.88
2019-04-20T16:24:15.095Z,17.63
2019-04-20T16:26:25.905Z,17.63
2019-04-20T16:28:35.372Z,17.63
2019-04-20T16:30:43.570Z,17.66
2019-04-20T16:32:52.590Z,17.57
2019-04-20T16:35:02.760Z,17.55
2019-04-20T16:37:12.285Z,17.40
2019-04-20T16:39:20.522Z,17.22
2019-04-20T16:41:28.541Z,17.18
2019-04-20T16:43:41.070Z,17.09
2019-04-20T16:45:47.398Z,17.21
2019-04-20T16:47:55.420Z,17.08
2019-04-20T16:50:04.951Z,17.04
2019-04-20T16:52:12.853Z,16.98
2019-04-20T16:54:22.090Z,17.04
2019-04-20T16:56:30.751Z,16.95
2019-04-20T16:58:39.954Z,16.91
2019-04-20T17:00:47.868Z,16.81
2019-04-20T17:02:58.192Z,16.83
2019-04-20T17:05:07.252Z,16.83
2019-04-20T17:07:16.540Z,16.79
2019-04-20T17:09:26.105Z,16.84
2019-04-20T17:11:36.164Z,16.72
2019-04-20T17:13:49.675Z,16.62
2019-04-20T17:15:55.353Z,16.55
2019-04-20T17:18:03.576Z,16.50
2019-04-20T17:20:13.770Z,16.47
2019-04-20T17:22:23.413Z,16.50
2019-04-20T17:24:31.437Z,16.48
2019-04-20T17:26:45.249Z,16.47
2019-04-20T17:29:10.595Z,16.42
2019-04-20T17:31:23.243Z,16.34
2019-04-20T17:33:46.468Z,16.18
2019-04-20T17:35:53.149Z,16.20
2019-04-20T17:37:53.588Z,16.08
2019-04-20T17:40:18.746Z,15.96
2019-04-20T17:42:25.054Z,15.95
2019-04-20T17:44:37.245Z,15.83
2019-04-20T17:46:41.300Z,15.78
2019-04-20T17:48:59.538Z,15.68
2019-04-20T17:51:14.181Z,15.60
2019-04-20T17:53:14.460Z,15.60
2019-04-20T17:55:22.897Z,15.49
2019-04-20T17:57:21.963Z,15.46
2019-04-20T17:59:30.481Z,15.31
2019-04-20T18:02:02.167Z,15.21
2019-04-20T18:04:27.555Z,15.14
2019-04-20T18:06:27.179Z,15.05
2019-04-20T18:08:45.495Z,14.99
2019-04-20T18:10:50.016Z,14.93
2019-04-20T18:12:44.899Z,14.84
2019-04-20T18:15:10.209Z,14.83
2019-04-20T18:17:30.505Z,14.76
2019-04-20T18:19:31.292Z,14.74
2019-04-20T18:21:43.426Z,14.63
2019-04-20T18:23:51.883Z,14.52
2019-04-20T18:26:24.145Z,14.44
2019-04-20T18:28:20.843Z,14.44
2019-04-20T18:30:39.150Z,14.48
2019-04-20T18:32:38.336Z,14.43
2019-04-20T18:34:53.029Z,14.29
2019-04-20T18:37:00.631Z,14.21
2019-04-20T18:39:13.233Z,14.16
2019-04-20T18:41:31.864Z,14.10
2019-04-20T18:43:30.984Z,14.12
2019-04-20T18:45:58.290Z,14.08
2019-04-20T18:48:08.620Z,13.94
2019-04-20T18:50:09.388Z,13.93
2019-04-20T18:52:09.338Z,13.84
2019-04-20T18:54:22.194Z,13.81
2019-04-20T18:56:33.016Z,13.80
2019-04-20T18:58:37.525Z,13.76
2019-04-20T19:00:51.440Z,13.71
2019-04-20T19:03:01.383Z,13.67
2019-04-20T19:05:08.690Z,13.67
2019-04-20T19:07:17.559Z,13.66
2019-04-20T19:09:30.109Z,13.65
2019-04-20T19:11:41.714Z,13.60
2019-04-20T19:13:49.839Z,13.58
2019-04-20T19:16:24.757Z,13.55
2019-04-20T19:18:45.298Z,13.50
2019-04-20T19:20:43.188Z,13.48
2019-04-20T19:22:52.351Z,13.44
2019-04-20T19:25:00.251Z,13.41
2019-04-20T19:27:12.063Z,13.33
2019-04-20T19:29:27.951Z,13.23
2019-04-20T19:31:42.631Z,13.18
2019-04-20T19:33:57.547Z,13.14
2019-04-20T19:35:55.736Z,13.08
2019-04-20T19:38:06.806Z,13.05
2019-04-20T19:40:19.199Z,13.00
2019-04-20T19:42:36.672Z,13.02
2019-04-20T19:44:44.978Z,12.97
2019-04-20T19:46:59.290Z,13.11
2019-04-20T19:48:59.547Z,13.30
2019-04-20T19:51:25.656Z,13.36
2019-04-20T19:53:30.364Z,13.36
2019-04-20T19:55:39.706Z,13.32
2019-04-20T19:57:45.161Z,13.26
2019-04-20T19:59:45.737Z,13.21
2019-04-20T20:01:49.951Z,13.15
2019-04-20T20:04:02.485Z,13.08
2019-04-20T20:06:12.045Z,13.00
2019-04-20T20:08:20.929Z,12.94
2019-04-20T20:10:30.318Z,12.86
2019-04-20T20:12:39.856Z,12.77
2019-04-20T20:14:49.506Z,12.69
2019-04-20T20:17:08.460Z,12.62
2019-04-20T20:19:12.066Z,12.55
2019-04-20T20:21:23.642Z,12.40
2019-04-20T20:23:25.856Z,12.41
2019-04-20T20:25:38.768Z,12.27
2019-04-20T20:27:51.219Z,12.21
2019-04-20T20:30:04.702Z,12.12
2019-04-20T20:32:15.623Z,11.96
2019-04-20T20:34:21.724Z,11.84
2019-04-20T20:36:30.783Z,11.78
2019-04-20T20:38:37.656Z,11.63
2019-04-20T20:40:54.855Z,11.47
2019-04-20T20:43:04.806Z,11.40
2019-04-20T20:45:14.602Z,11.24
2019-04-20T20:47:38.268Z,11.22
2019-04-20T20:49:40.223Z,11.07
2019-04-20T20:51:49.793Z,10.92
2019-04-20T20:53:51.316Z,10.87
2019-04-20T20:56:05.327Z,10.69
2019-04-20T20:58:08.490Z,10.58
2019-04-20T21:00:22.660Z,10.47
2019-04-20T21:02:30.115Z,10.49
2019-04-20T21:04:30.696Z,10.45
2019-04-20T21:06:38.555Z,10.32
2019-04-20T21:08:51.478Z,10.28
2019-04-20T21:10:56.590Z,10.23
2019-04-20T21:13:08.356Z,10.02
2019-04-20T21:15:20.345Z,10.02
2019-04-20T21:17:27.493Z,10.09
2019-04-20T21:19:52.493Z,10.24
2019-04-20T21:21:51.637Z,10.52
2019-04-20T21:24:00.430Z,10.69
2019-04-20T21:26:17.020Z,10.92
2019-04-20T21:28:20.668Z,11.02
2019-04-20T21:30:35.052Z,10.99
2019-04-20T21:32:43.465Z,10.95
2019-04-20T21:34:51.783Z,10.90
2019-04-20T21:37:03.505Z,10.81
2019-04-20T21:39:18.102Z,10.76
2019-04-20T21:41:22.533Z,10.87
2019-04-20T21:43:36.348Z,11.07
2019-04-20T21:45:49.784Z,11.25
2019-04-20T21:47:50.272Z,11.36
2019-04-20T21:50:19.999Z,11.36
2019-04-20T21:52:20.852Z,11.50
2019-04-20T21:54:18.271Z,11.53
2019-04-20T21:56:26.502Z,11.60
2019-04-20T21:58:41.630Z,11.54
2019-04-20T22:01:03.849Z,11.56
2019-04-20T22:03:07.445Z,11.50
2019-04-20T22:05:13.566Z,11.52
2019-04-20T22:07:22.811Z,11.63
2019-04-20T22:09:38.461Z,11.54
2019-04-20T22:11:41.991Z,11.59
2019-04-20T22:13:51.229Z,11.45
2019-04-20T22:16:05.215Z,11.61
2019-04-20T22:18:14.117Z,11.47
2019-04-20T22:20:28.800Z,11.49
2019-04-20T22:22:43.157Z,11.54
2019-04-20T22:24:52.354Z,11.56
2019-04-20T22:26:59.993Z,11.44
2019-04-20T22:28:58.504Z,11.38
2019-04-20T22:31:06.430Z,11.31
2019-04-20T22:33:31.382Z,11.26
2019-04-20T22:35:36.037Z,11.16
2019-04-20T22:37:53.199Z,11.02
2019-04-20T22:39:58.356Z,10.85
2019-04-20T22:42:11.488Z,10.54
2019-04-20T22:44:20.909Z,10.48
2019-04-20T22:46:31.769Z,10.48
2019-04-20T22:48:40.461Z,10.36
2019-04-20T22:51:10.173Z,10.37
2019-04-20T22:53:16.555Z,10.34
2019-04-20T22:55:27.091Z,10.35
2019-04-20T22:57:31.616Z,10.36
2019-04-20T22:59:38.397Z,10.29
2019-04-20T23:01:44.352Z,10.26
2019-04-20T23:03:46.252Z,10.02
2019-04-20T23:05:54.441Z,10.08
2019-04-20T23:08:04.559Z,10.02
2019-04-20T23:10:13.289Z,9.99
2019-04-20T23:12:23.754Z,9.93
2019-04-20T23:14:32.124Z,9.70
2019-04-20T23:16:43.909Z,9.71
2019-04-20T23:18:50.042Z,9.67
2019-04-20T23:21:02.437Z,9.58
2019-04-20T23:23:12.405Z,9.60
2019-04-20T23:25:17.547Z,9.52
2019-04-20T23:27:31.243Z,9.55
2019-04-20T23:29:38.340Z,9.47
2019-04-20T23:31:50.656Z,9.46
2019-04-20T23:33:56.135Z,9.44
2019-04-20T23:36:05.047Z,9.36
2019-04-20T23:38:17.980Z,9.37
2019-04-20T23:40:23.665Z,9.47
2019-04-20T23:42:42.782Z,9.42
2019-04-20T23:45:09.300Z,9.44
2019-04-20T23:47:23.719Z,9.51
2019-04-20T23:49:53.811Z,9.37
2019-04-20T23:52:05.486Z,9.33
2019-04-20T23:54:04.671Z,9.22
2019-04-20T23:56:03.759Z,9.10
2019-04-20T23:58:14.106Z,9.06
